sensor_id;sensor_type;location;lat;lon;timestamp;temperature;humidity
12276;DHT22;6200;48.144;11.424;2023-05-07T00:00:32;13.10;99.90
12276;DHT22;6200;48.144;11.424;2023-05-07T00:02:59;13.10;99.90
12276;DHT22;6200;48.144;11.424;2023-05-07T00:05:25;13.10;99.90
12276;DHT22;6200;48.144;11.424;2023-05-07T00:07:51;13.20;99.90
12276;DHT22;6200;48.144;11.424;2023-05-07T00:10:18;13.10;99.90
12276;DHT22;6200;48.144;11.424;2023-05-07T00:12:44;13.10;99.90
12276;DHT22;6200;48.144;11.424;2023-05-07T00:15:10;13.10;99.90
12276;DHT22;6200;48.144;11.424;2023-05-07T00:17:35;13.00;99.90
12276;DHT22;6200;48.144;11.424;2023-05-07T00:20:02;13.00;99.90
12276;DHT22;6200;48.144;11.424;2023-05-07T00:22:29;12.90;99.90
12276;DHT22;6200;48.144;11.424;2023-05-07T00:24:55;12.90;99.90
12276;DHT22;6200;48.144;11.424;2023-05-07T00:27:21;12.90;99.90
12276;DHT22;6200;48.144;11.424;2023-05-07T00:29:47;12.90;99.90
12276;DHT22;6200;48.144;11.424;2023-05-07T00:32:12;12.80;99.90
12276;DHT22;6200;48.144;11.424;2023-05-07T00:34:38;12.90;99.90
12276;DHT22;6200;48.144;11.424;2023-05-07T00:37:05;12.90;99.90
12276;DHT22;6200;48.144;11.424;2023-05-07T00:39:33;12.90;99.90
12276;DHT22;6200;48.144;11.424;2023-05-07T00:41:58;12.80;99.90
12276;DHT22;6200;48.144;11.424;2023-05-07T00:44:24;12.80;99.90
12276;DHT22;6200;48.144;11.424;2023-05-07T00:46:50;12.80;99.90
12276;DHT22;6200;48.144;11.424;2023-05-07T00:49:16;12.70;99.90
12276;DHT22;6200;48.144;11.424;2023-05-07T00:51:42;12.80;99.90
12276;DHT22;6200;48.144;11.424;2023-05-07T00:54:08;12.80;99.90
12276;DHT22;6200;48.144;11.424;2023-05-07T00:56:34;12.80;99.90
12276;DHT22;6200;48.144;11.424;2023-05-07T00:59:01;12.80;99.90
12276;DHT22;6200;48.144;11.424;2023-05-07T01:01:27;12.70;99.90
12276;DHT22;6200;48.144;11.424;2023-05-07T01:03:53;12.70;99.90
12276;DHT22;6200;48.144;11.424;2023-05-07T01:06:19;12.70;99.90
12276;DHT22;6200;48.144;11.424;2023-05-07T01:08:46;12.70;99.90
12276;DHT22;6200;48.144;11.424;2023-05-07T01:11:13;12.70;99.90
12276;DHT22;6200;48.144;11.424;2023-05-07T01:13:39;12.70;99.90
12276;DHT22;6200;48.144;11.424;2023-05-07T01:16:06;12.70;99.90
12276;DHT22;6200;48.144;11.424;2023-05-07T01:18:32;12.70;99.90
12276;DHT22;6200;48.144;11.424;2023-05-07T01:20:58;12.70;99.90
12276;DHT22;6200;48.144;11.424;2023-05-07T01:23:25;12.70;99.90
12276;DHT22;6200;48.144;11.424;2023-05-07T01:25:53;12.70;99.90
12276;DHT22;6200;48.144;11.424;2023-05-07T01:28:18;12.70;99.90
12276;DHT22;6200;48.144;11.424;2023-05-07T01:30:48;12.70;99.90
12276;DHT22;6200;48.144;11.424;2023-05-07T01:33:17;12.70;99.90
12276;DHT22;6200;48.144;11.424;2023-05-07T01:35:46;12.60;99.90
12276;DHT22;6200;48.144;11.424;2023-05-07T01:38:12;12.60;99.90
12276;DHT22;6200;48.144;11.424;2023-05-07T01:40:38;12.60;99.90
12276;DHT22;6200;48.144;11.424;2023-05-07T01:43:05;12.60;99.90
12276;DHT22;6200;48.144;11.424;2023-05-07T01:45:31;12.60;99.90
12276;DHT22;6200;48.144;11.424;2023-05-07T01:47:58;12.60;99.90
12276;DHT22;6200;48.144;11.424;2023-05-07T01:50:24;12.50;99.90
12276;DHT22;6200;48.144;11.424;2023-05-07T01:52:51;12.50;99.90
12276;DHT22;6200;48.144;11.424;2023-05-07T01:55:16;12.50;99.90
12276;DHT22;6200;48.144;11.424;2023-05-07T01:57:42;12.50;99.90
12276;DHT22;6200;48.144;11.424;2023-05-07T02:00:08;12.50;99.90
12276;DHT22;6200;48.144;11.424;2023-05-07T02:02:34;12.50;99.90
12276;DHT22;6200;48.144;11.424;2023-05-07T02:05:00;12.40;99.90
12276;DHT22;6200;48.144;11.424;2023-05-07T02:07:27;12.40;99.90
12276;DHT22;6200;48.144;11.424;2023-05-07T02:09:52;12.40;99.90
12276;DHT22;6200;48.144;11.424;2023-05-07T02:12:19;12.40;99.90
12276;DHT22;6200;48.144;11.424;2023-05-07T02:14:44;12.40;99.90
12276;DHT22;6200;48.144;11.424;2023-05-07T02:17:10;12.30;99.90
12276;DHT22;6200;48.144;11.424;2023-05-07T02:19:35;12.30;99.90
12276;DHT22;6200;48.144;11.424;2023-05-07T02:22:01;12.40;99.90
12276;DHT22;6200;48.144;11.424;2023-05-07T02:24:26;12.40;99.90
12276;DHT22;6200;48.144;11.424;2023-05-07T02:26:52;12.40;99.90
12276;DHT22;6200;48.144;11.424;2023-05-07T02:29:17;12.40;99.90
12276;DHT22;6200;48.144;11.424;2023-05-07T02:31:43;12.40;99.90
12276;DHT22;6200;48.144;11.424;2023-05-07T02:34:08;12.30;99.90
12276;DHT22;6200;48.144;11.424;2023-05-07T02:36:34;12.30;99.90
12276;DHT22;6200;48.144;11.424;2023-05-07T02:39:00;12.30;99.90
12276;DHT22;6200;48.144;11.424;2023-05-07T02:41:25;12.20;99.90
12276;DHT22;6200;48.144;11.424;2023-05-07T02:43:53;12.20;99.90
12276;DHT22;6200;48.144;11.424;2023-05-07T02:46:18;12.30;99.90
12276;DHT22;6200;48.144;11.424;2023-05-07T02:48:44;12.30;99.90
12276;DHT22;6200;48.144;11.424;2023-05-07T02:51:10;12.20;99.90
12276;DHT22;6200;48.144;11.424;2023-05-07T02:53:35;12.20;99.90
12276;DHT22;6200;48.144;11.424;2023-05-07T02:56:01;12.10;99.90
12276;DHT22;6200;48.144;11.424;2023-05-07T02:58:27;12.10;99.90
12276;DHT22;6200;48.144;11.424;2023-05-07T03:00:53;12.10;99.90
12276;DHT22;6200;48.144;11.424;2023-05-07T03:03:20;12.10;99.90
12276;DHT22;6200;48.144;11.424;2023-05-07T03:05:45;12.10;99.90
12276;DHT22;6200;48.144;11.424;2023-05-07T03:08:11;12.10;99.90
12276;DHT22;6200;48.144;11.424;2023-05-07T03:10:37;12.10;99.90
12276;DHT22;6200;48.144;11.424;2023-05-07T03:13:02;12.00;99.90
12276;DHT22;6200;48.144;11.424;2023-05-07T03:15:28;12.10;99.90
12276;DHT22;6200;48.144;11.424;2023-05-07T03:17:54;12.10;99.90
12276;DHT22;6200;48.144;11.424;2023-05-07T03:20:19;12.00;99.90
12276;DHT22;6200;48.144;11.424;2023-05-07T03:22:45;12.00;99.90
12276;DHT22;6200;48.144;11.424;2023-05-07T03:25:10;12.10;99.90
12276;DHT22;6200;48.144;11.424;2023-05-07T03:27:36;12.10;99.90
12276;DHT22;6200;48.144;11.424;2023-05-07T03:30:02;12.10;99.90
12276;DHT22;6200;48.144;11.424;2023-05-07T03:32:27;12.10;99.90
12276;DHT22;6200;48.144;11.424;2023-05-07T03:34:53;12.10;99.90
12276;DHT22;6200;48.144;11.424;2023-05-07T03:37:19;12.10;99.90
12276;DHT22;6200;48.144;11.424;2023-05-07T03:39:44;12.10;99.90
12276;DHT22;6200;48.144;11.424;2023-05-07T03:42:10;12.00;99.90
12276;DHT22;6200;48.144;11.424;2023-05-07T03:44:36;12.00;99.90
12276;DHT22;6200;48.144;11.424;2023-05-07T03:47:02;12.00;99.90
12276;DHT22;6200;48.144;11.424;2023-05-07T03:49:27;11.90;99.90
12276;DHT22;6200;48.144;11.424;2023-05-07T03:51:53;11.90;99.90
12276;DHT22;6200;48.144;11.424;2023-05-07T03:54:18;11.90;99.90
12276;DHT22;6200;48.144;11.424;2023-05-07T03:56:44;11.90;99.90
12276;DHT22;6200;48.144;11.424;2023-05-07T03:59:09;11.80;99.90
12276;DHT22;6200;48.144;11.424;2023-05-07T04:01:35;11.80;99.90
12276;DHT22;6200;48.144;11.424;2023-05-07T04:04:01;11.80;99.90
12276;DHT22;6200;48.144;11.424;2023-05-07T04:06:26;11.70;99.90
12276;DHT22;6200;48.144;11.424;2023-05-07T04:08:52;11.70;99.90
12276;DHT22;6200;48.144;11.424;2023-05-07T04:11:18;11.70;99.90
12276;DHT22;6200;48.144;11.424;2023-05-07T04:13:44;11.70;99.90
12276;DHT22;6200;48.144;11.424;2023-05-07T04:16:09;11.70;99.90
12276;DHT22;6200;48.144;11.424;2023-05-07T04:18:35;11.60;99.90
12276;DHT22;6200;48.144;11.424;2023-05-07T04:21:00;11.60;99.90
12276;DHT22;6200;48.144;11.424;2023-05-07T04:23:26;11.60;99.90
12276;DHT22;6200;48.144;11.424;2023-05-07T04:25:51;11.60;99.90
12276;DHT22;6200;48.144;11.424;2023-05-07T04:28:17;11.60;99.90
12276;DHT22;6200;48.144;11.424;2023-05-07T04:30:43;11.60;99.90
12276;DHT22;6200;48.144;11.424;2023-05-07T04:33:08;11.60;99.90
12276;DHT22;6200;48.144;11.424;2023-05-07T04:35:35;11.60;99.90
12276;DHT22;6200;48.144;11.424;2023-05-07T04:38:00;11.70;99.90
12276;DHT22;6200;48.144;11.424;2023-05-07T04:40:27;11.70;99.90
12276;DHT22;6200;48.144;11.424;2023-05-07T04:42:53;11.70;99.90
12276;DHT22;6200;48.144;11.424;2023-05-07T04:45:19;11.70;99.90
12276;DHT22;6200;48.144;11.424;2023-05-07T04:47:44;11.80;99.90
12276;DHT22;6200;48.144;11.424;2023-05-07T04:50:10;11.80;99.90
12276;DHT22;6200;48.144;11.424;2023-05-07T04:52:36;11.80;99.90
12276;DHT22;6200;48.144;11.424;2023-05-07T04:55:02;11.80;99.90
12276;DHT22;6200;48.144;11.424;2023-05-07T04:57:27;11.90;99.90
12276;DHT22;6200;48.144;11.424;2023-05-07T04:59:54;11.90;99.90
12276;DHT22;6200;48.144;11.424;2023-05-07T05:02:19;11.90;99.90
12276;DHT22;6200;48.144;11.424;2023-05-07T05:04:45;12.00;99.90
12276;DHT22;6200;48.144;11.424;2023-05-07T05:07:10;12.00;99.90
12276;DHT22;6200;48.144;11.424;2023-05-07T05:09:36;12.10;99.90
12276;DHT22;6200;48.144;11.424;2023-05-07T05:12:02;12.10;99.90
12276;DHT22;6200;48.144;11.424;2023-05-07T05:14:27;12.10;99.90
12276;DHT22;6200;48.144;11.424;2023-05-07T05:16:53;12.00;99.90
12276;DHT22;6200;48.144;11.424;2023-05-07T05:19:18;12.10;99.90
12276;DHT22;6200;48.144;11.424;2023-05-07T05:21:44;12.10;99.90
12276;DHT22;6200;48.144;11.424;2023-05-07T05:24:09;12.20;99.90
12276;DHT22;6200;48.144;11.424;2023-05-07T05:26:35;12.20;99.90
12276;DHT22;6200;48.144;11.424;2023-05-07T05:29:00;12.30;99.90
12276;DHT22;6200;48.144;11.424;2023-05-07T05:31:26;12.30;99.90
12276;DHT22;6200;48.144;11.424;2023-05-07T05:33:52;12.40;99.90
12276;DHT22;6200;48.144;11.424;2023-05-07T05:36:17;12.40;99.90
12276;DHT22;6200;48.144;11.424;2023-05-07T05:38:43;12.50;99.90
12276;DHT22;6200;48.144;11.424;2023-05-07T05:41:09;12.50;99.90
12276;DHT22;6200;48.144;11.424;2023-05-07T05:43:35;12.60;99.90
12276;DHT22;6200;48.144;11.424;2023-05-07T05:46:00;12.70;99.90
12276;DHT22;6200;48.144;11.424;2023-05-07T05:48:26;12.70;99.90
12276;DHT22;6200;48.144;11.424;2023-05-07T05:50:51;12.70;99.90
12276;DHT22;6200;48.144;11.424;2023-05-07T05:53:17;12.80;99.90
12276;DHT22;6200;48.144;11.424;2023-05-07T05:55:42;12.90;99.90
12276;DHT22;6200;48.144;11.424;2023-05-07T05:58:09;13.00;99.90
12276;DHT22;6200;48.144;11.424;2023-05-07T06:00:34;13.20;99.90
12276;DHT22;6200;48.144;11.424;2023-05-07T06:03:00;13.60;99.90
12276;DHT22;6200;48.144;11.424;2023-05-07T06:05:25;13.90;99.90
12276;DHT22;6200;48.144;11.424;2023-05-07T06:07:51;14.50;99.90
12276;DHT22;6200;48.144;11.424;2023-05-07T06:10:17;15.10;99.90
12276;DHT22;6200;48.144;11.424;2023-05-07T06:12:42;15.90;99.90
12276;DHT22;6200;48.144;11.424;2023-05-07T06:15:08;16.70;99.90
12276;DHT22;6200;48.144;11.424;2023-05-07T06:17:34;17.60;99.90
12276;DHT22;6200;48.144;11.424;2023-05-07T06:19:59;18.60;99.90
12276;DHT22;6200;48.144;11.424;2023-05-07T06:22:25;19.60;99.90
12276;DHT22;6200;48.144;11.424;2023-05-07T06:24:50;20.50;99.90
12276;DHT22;6200;48.144;11.424;2023-05-07T06:27:16;21.30;99.90
12276;DHT22;6200;48.144;11.424;2023-05-07T06:29:41;22.50;99.90
12276;DHT22;6200;48.144;11.424;2023-05-07T06:32:08;22.50;99.90
12276;DHT22;6200;48.144;11.424;2023-05-07T06:34:34;22.90;98.50
12276;DHT22;6200;48.144;11.424;2023-05-07T06:37:00;23.50;98.00
12276;DHT22;6200;48.144;11.424;2023-05-07T06:39:26;23.60;96.60
12276;DHT22;6200;48.144;11.424;2023-05-07T06:41:51;24.10;94.90
12276;DHT22;6200;48.144;11.424;2023-05-07T06:44:17;24.60;93.80
12276;DHT22;6200;48.144;11.424;2023-05-07T06:46:42;24.80;92.90
12276;DHT22;6200;48.144;11.424;2023-05-07T06:49:08;25.10;92.20
12276;DHT22;6200;48.144;11.424;2023-05-07T06:51:33;25.30;92.10
12276;DHT22;6200;48.144;11.424;2023-05-07T06:53:59;22.70;90.70
12276;DHT22;6200;48.144;11.424;2023-05-07T06:56:25;25.40;91.30
12276;DHT22;6200;48.144;11.424;2023-05-07T06:58:51;25.60;89.80
12276;DHT22;6200;48.144;11.424;2023-05-07T07:01:16;25.50;90.30
12276;DHT22;6200;48.144;11.424;2023-05-07T07:03:41;25.60;87.90
12276;DHT22;6200;48.144;11.424;2023-05-07T07:06:07;25.60;89.90
12276;DHT22;6200;48.144;11.424;2023-05-07T07:08:32;25.80;87.80
12276;DHT22;6200;48.144;11.424;2023-05-07T07:10:58;25.90;87.30
12276;DHT22;6200;48.144;11.424;2023-05-07T07:13:24;26.20;84.80
12276;DHT22;6200;48.144;11.424;2023-05-07T07:15:49;26.10;85.60
12276;DHT22;6200;48.144;11.424;2023-05-07T07:18:15;26.20;83.70
12276;DHT22;6200;48.144;11.424;2023-05-07T07:20:40;26.50;82.40
12276;DHT22;6200;48.144;11.424;2023-05-07T07:23:06;26.60;79.10
12276;DHT22;6200;48.144;11.424;2023-05-07T07:35:17;26.10;80.30
12276;DHT22;6200;48.144;11.424;2023-05-07T07:52:18;24.40;86.30
12276;DHT22;6200;48.144;11.424;2023-05-07T07:54:44;24.40;84.10
12276;DHT22;6200;48.144;11.424;2023-05-07T07:57:10;24.30;85.00
12276;DHT22;6200;48.144;11.424;2023-05-07T07:59:35;24.20;84.80
12276;DHT22;6200;48.144;11.424;2023-05-07T08:02:01;24.10;85.60
12276;DHT22;6200;48.144;11.424;2023-05-07T08:04:26;24.10;87.50
12276;DHT22;6200;48.144;11.424;2023-05-07T08:06:52;24.10;86.20
12276;DHT22;6200;48.144;11.424;2023-05-07T08:11:45;23.60;88.40
12276;DHT22;6200;48.144;11.424;2023-05-07T08:21:29;23.50;88.10
12276;DHT22;6200;48.144;11.424;2023-05-07T08:23:56;23.40;86.70
12276;DHT22;6200;48.144;11.424;2023-05-07T08:26:21;23.30;90.70
12276;DHT22;6200;48.144;11.424;2023-05-07T08:28:47;23.30;91.10
12276;DHT22;6200;48.144;11.424;2023-05-07T08:31:12;23.50;87.40
12276;DHT22;6200;48.144;11.424;2023-05-07T08:33:38;23.70;86.60
12276;DHT22;6200;48.144;11.424;2023-05-07T08:36:04;23.70;87.50
12276;DHT22;6200;48.144;11.424;2023-05-07T08:38:30;23.70;88.20
12276;DHT22;6200;48.144;11.424;2023-05-07T08:40:56;23.70;90.00
12276;DHT22;6200;48.144;11.424;2023-05-07T08:43:23;23.70;90.20
12276;DHT22;6200;48.144;11.424;2023-05-07T08:45:53;23.70;89.50
12276;DHT22;6200;48.144;11.424;2023-05-07T08:48:22;24.50;87.80
12276;DHT22;6200;48.144;11.424;2023-05-07T08:50:50;23.90;87.40
12276;DHT22;6200;48.144;11.424;2023-05-07T08:53:16;23.90;87.40
12276;DHT22;6200;48.144;11.424;2023-05-07T08:55:42;23.90;86.80
12276;DHT22;6200;48.144;11.424;2023-05-07T08:58:07;23.90;90.20
12276;DHT22;6200;48.144;11.424;2023-05-07T09:00:33;24.10;88.00
12276;DHT22;6200;48.144;11.424;2023-05-07T09:03:00;24.20;88.60
12276;DHT22;6200;48.144;11.424;2023-05-07T09:05:26;24.20;86.60
12276;DHT22;6200;48.144;11.424;2023-05-07T09:07:51;24.20;86.80
12276;DHT22;6200;48.144;11.424;2023-05-07T09:10:17;24.40;84.10
12276;DHT22;6200;48.144;11.424;2023-05-07T09:12:42;24.50;86.30
12276;DHT22;6200;48.144;11.424;2023-05-07T09:15:08;24.60;86.60
12276;DHT22;6200;48.144;11.424;2023-05-07T09:17:34;24.70;84.60
12276;DHT22;6200;48.144;11.424;2023-05-07T09:20:06;24.70;83.80
12276;DHT22;6200;48.144;11.424;2023-05-07T09:22:32;24.80;85.10
12276;DHT22;6200;48.144;11.424;2023-05-07T09:24:58;24.90;87.70
12276;DHT22;6200;48.144;11.424;2023-05-07T09:27:24;25.10;83.80
12276;DHT22;6200;48.144;11.424;2023-05-07T09:29:50;25.20;84.30
12276;DHT22;6200;48.144;11.424;2023-05-07T09:32:15;25.20;79.60
12276;DHT22;6200;48.144;11.424;2023-05-07T09:34:41;25.20;80.50
12276;DHT22;6200;48.144;11.424;2023-05-07T09:37:07;23.00;77.50
12276;DHT22;6200;48.144;11.424;2023-05-07T09:39:43;25.30;79.60
12276;DHT22;6200;48.144;11.424;2023-05-07T09:42:09;25.40;75.80
12276;DHT22;6200;48.144;11.424;2023-05-07T09:44:37;25.40;79.10
12276;DHT22;6200;48.144;11.424;2023-05-07T09:47:05;25.40;80.80
12276;DHT22;6200;48.144;11.424;2023-05-07T09:49:34;25.60;78.80
12276;DHT22;6200;48.144;11.424;2023-05-07T09:52:01;25.70;79.10
12276;DHT22;6200;48.144;11.424;2023-05-07T09:54:26;25.70;75.70
12276;DHT22;6200;48.144;11.424;2023-05-07T09:56:56;25.70;78.70
12276;DHT22;6200;48.144;11.424;2023-05-07T09:59:23;25.60;77.40
12276;DHT22;6200;48.144;11.424;2023-05-07T10:01:51;25.70;76.90
12276;DHT22;6200;48.144;11.424;2023-05-07T10:04:17;25.80;77.10
12276;DHT22;6200;48.144;11.424;2023-05-07T10:06:44;25.80;78.50
12276;DHT22;6200;48.144;11.424;2023-05-07T10:09:10;25.80;74.80
12276;DHT22;6200;48.144;11.424;2023-05-07T10:11:36;25.70;76.90
12276;DHT22;6200;48.144;11.424;2023-05-07T10:14:03;25.70;73.50
12276;DHT22;6200;48.144;11.424;2023-05-07T10:16:32;25.60;78.50
12276;DHT22;6200;48.144;11.424;2023-05-07T10:18:58;25.50;75.70
12276;DHT22;6200;48.144;11.424;2023-05-07T10:21:27;25.40;75.50
12276;DHT22;6200;48.144;11.424;2023-05-07T10:24:04;25.20;76.80
12276;DHT22;6200;48.144;11.424;2023-05-07T10:26:32;25.10;78.00
12276;DHT22;6200;48.144;11.424;2023-05-07T10:29:18;25.10;79.00
12276;DHT22;6200;48.144;11.424;2023-05-07T10:34:36;25.30;76.60
12276;DHT22;6200;48.144;11.424;2023-05-07T10:37:03;25.30;78.20
12276;DHT22;6200;48.144;11.424;2023-05-07T10:39:29;25.40;77.70
12276;DHT22;6200;48.144;11.424;2023-05-07T10:41:55;25.50;75.60
12276;DHT22;6200;48.144;11.424;2023-05-07T10:44:28;25.60;73.90
12276;DHT22;6200;48.144;11.424;2023-05-07T10:47:08;25.80;79.00
12276;DHT22;6200;48.144;11.424;2023-05-07T10:52:28;25.90;74.30
12276;DHT22;6200;48.144;11.424;2023-05-07T10:55:19;25.90;73.10
12276;DHT22;6200;48.144;11.424;2023-05-07T10:57:50;25.90;76.70
12276;DHT22;6200;48.144;11.424;2023-05-07T11:05:26;27.20;72.30
12276;DHT22;6200;48.144;11.424;2023-05-07T11:07:59;25.80;74.70
12276;DHT22;6200;48.144;11.424;2023-05-07T11:10:48;26.00;73.50
12276;DHT22;6200;48.144;11.424;2023-05-07T11:13:14;26.10;75.50
12276;DHT22;6200;48.144;11.424;2023-05-07T11:15:45;26.20;73.60
12276;DHT22;6200;48.144;11.424;2023-05-07T11:18:15;26.20;72.20
12276;DHT22;6200;48.144;11.424;2023-05-07T11:26:04;26.40;75.60
12276;DHT22;6200;48.144;11.424;2023-05-07T11:28:32;26.50;73.20
12276;DHT22;6200;48.144;11.424;2023-05-07T11:31:02;26.60;70.50
12276;DHT22;6200;48.144;11.424;2023-05-07T11:33:28;26.50;68.30
12276;DHT22;6200;48.144;11.424;2023-05-07T11:35:55;26.40;70.10
12276;DHT22;6200;48.144;11.424;2023-05-07T11:38:21;26.30;71.50
12276;DHT22;6200;48.144;11.424;2023-05-07T11:40:58;26.50;69.50
12276;DHT22;6200;48.144;11.424;2023-05-07T11:43:27;26.50;73.30
12276;DHT22;6200;48.144;11.424;2023-05-07T11:45:53;26.70;68.20
12276;DHT22;6200;48.144;11.424;2023-05-07T11:48:21;26.70;67.40
12276;DHT22;6200;48.144;11.424;2023-05-07T11:50:51;26.80;68.40
12276;DHT22;6200;48.144;11.424;2023-05-07T11:53:24;26.80;72.00
12276;DHT22;6200;48.144;11.424;2023-05-07T11:55:55;26.90;71.80
12276;DHT22;6200;48.144;11.424;2023-05-07T11:58:22;26.80;74.80
12276;DHT22;6200;48.144;11.424;2023-05-07T12:00:52;26.70;73.50
12276;DHT22;6200;48.144;11.424;2023-05-07T12:03:18;26.50;73.60
12276;DHT22;6200;48.144;11.424;2023-05-07T12:05:45;26.30;74.70
12276;DHT22;6200;48.144;11.424;2023-05-07T12:08:14;26.20;75.60
12276;DHT22;6200;48.144;11.424;2023-05-07T12:10:41;26.10;74.30
12276;DHT22;6200;48.144;11.424;2023-05-07T12:13:21;25.90;75.80
12276;DHT22;6200;48.144;11.424;2023-05-07T12:15:50;26.00;76.20
12276;DHT22;6200;48.144;11.424;2023-05-07T12:18:16;26.10;77.50
12276;DHT22;6200;48.144;11.424;2023-05-07T12:20:42;26.10;75.30
12276;DHT22;6200;48.144;11.424;2023-05-07T12:23:08;26.20;72.20
12276;DHT22;6200;48.144;11.424;2023-05-07T12:25:40;26.20;73.00
12276;DHT22;6200;48.144;11.424;2023-05-07T12:28:13;26.20;74.60
12276;DHT22;6200;48.144;11.424;2023-05-07T12:30:42;26.20;76.70
12276;DHT22;6200;48.144;11.424;2023-05-07T12:33:07;26.20;74.80
12276;DHT22;6200;48.144;11.424;2023-05-07T12:35:40;26.40;74.20
12276;DHT22;6200;48.144;11.424;2023-05-07T12:38:11;26.40;74.30
12276;DHT22;6200;48.144;11.424;2023-05-07T12:40:40;26.40;76.60
12276;DHT22;6200;48.144;11.424;2023-05-07T12:43:06;26.50;74.20
12276;DHT22;6200;48.144;11.424;2023-05-07T12:45:37;26.70;71.70
12276;DHT22;6200;48.144;11.424;2023-05-07T12:48:04;26.60;71.00
12276;DHT22;6200;48.144;11.424;2023-05-07T12:50:33;26.50;73.40
12276;DHT22;6200;48.144;11.424;2023-05-07T12:52:59;26.30;73.40
12276;DHT22;6200;48.144;11.424;2023-05-07T12:55:24;26.20;71.60
12276;DHT22;6200;48.144;11.424;2023-05-07T12:57:50;26.20;71.00
12276;DHT22;6200;48.144;11.424;2023-05-07T13:00:17;26.10;73.00
12276;DHT22;6200;48.144;11.424;2023-05-07T13:02:43;26.00;73.20
12276;DHT22;6200;48.144;11.424;2023-05-07T13:05:12;25.90;69.40
12276;DHT22;6200;48.144;11.424;2023-05-07T13:07:38;25.80;71.90
12276;DHT22;6200;48.144;11.424;2023-05-07T13:10:03;25.80;69.60
12276;DHT22;6200;48.144;11.424;2023-05-07T13:12:29;25.90;71.70
12276;DHT22;6200;48.144;11.424;2023-05-07T13:14:55;25.90;71.20
12276;DHT22;6200;48.144;11.424;2023-05-07T13:17:20;25.80;72.70
12276;DHT22;6200;48.144;11.424;2023-05-07T13:19:46;25.70;71.80
12276;DHT22;6200;48.144;11.424;2023-05-07T13:22:11;25.80;73.00
12276;DHT22;6200;48.144;11.424;2023-05-07T13:24:37;25.80;72.10
12276;DHT22;6200;48.144;11.424;2023-05-07T13:27:02;26.00;71.00
12276;DHT22;6200;48.144;11.424;2023-05-07T13:29:28;26.10;71.00
12276;DHT22;6200;48.144;11.424;2023-05-07T13:31:58;26.30;74.00
12276;DHT22;6200;48.144;11.424;2023-05-07T13:34:24;26.30;68.80
12276;DHT22;6200;48.144;11.424;2023-05-07T13:36:49;26.30;72.10
12276;DHT22;6200;48.144;11.424;2023-05-07T13:39:15;26.30;68.70
12276;DHT22;6200;48.144;11.424;2023-05-07T13:41:41;26.30;68.60
12276;DHT22;6200;48.144;11.424;2023-05-07T13:44:06;26.20;68.20
12276;DHT22;6200;48.144;11.424;2023-05-07T13:46:32;26.10;68.30
12276;DHT22;6200;48.144;11.424;2023-05-07T13:48:57;26.00;67.90
12276;DHT22;6200;48.144;11.424;2023-05-07T13:51:23;26.00;69.80
12276;DHT22;6200;48.144;11.424;2023-05-07T13:53:49;25.90;70.50
12276;DHT22;6200;48.144;11.424;2023-05-07T13:56:14;25.80;69.70
12276;DHT22;6200;48.144;11.424;2023-05-07T13:58:40;25.80;69.90
12276;DHT22;6200;48.144;11.424;2023-05-07T14:01:06;25.80;71.30
12276;DHT22;6200;48.144;11.424;2023-05-07T14:03:32;25.80;72.40
12276;DHT22;6200;48.144;11.424;2023-05-07T14:05:59;25.80;70.20
12276;DHT22;6200;48.144;11.424;2023-05-07T14:08:25;25.70;69.40
12276;DHT22;6200;48.144;11.424;2023-05-07T14:10:51;25.60;67.80
12276;DHT22;6200;48.144;11.424;2023-05-07T14:13:17;25.50;68.60
12276;DHT22;6200;48.144;11.424;2023-05-07T14:15:42;25.20;69.30
12276;DHT22;6200;48.144;11.424;2023-05-07T14:18:12;25.00;68.40
12276;DHT22;6200;48.144;11.424;2023-05-07T14:20:38;24.90;71.70
12276;DHT22;6200;48.144;11.424;2023-05-07T14:23:03;24.80;71.10
12276;DHT22;6200;48.144;11.424;2023-05-07T14:25:29;24.70;71.30
12276;DHT22;6200;48.144;11.424;2023-05-07T14:27:55;24.60;73.40
12276;DHT22;6200;48.144;11.424;2023-05-07T14:30:20;24.50;73.30
12276;DHT22;6200;48.144;11.424;2023-05-07T14:32:47;24.40;74.50
12276;DHT22;6200;48.144;11.424;2023-05-07T14:35:13;24.30;75.40
12276;DHT22;6200;48.144;11.424;2023-05-07T14:37:38;24.30;75.30
12276;DHT22;6200;48.144;11.424;2023-05-07T14:40:04;24.20;75.50
12276;DHT22;6200;48.144;11.424;2023-05-07T14:42:30;24.10;77.20
12276;DHT22;6200;48.144;11.424;2023-05-07T14:44:55;24.10;79.00
12276;DHT22;6200;48.144;11.424;2023-05-07T14:47:21;23.90;79.40
12276;DHT22;6200;48.144;11.424;2023-05-07T14:49:46;23.90;79.60
12276;DHT22;6200;48.144;11.424;2023-05-07T14:52:12;23.90;77.80
12276;DHT22;6200;48.144;11.424;2023-05-07T14:54:38;23.80;79.00
12276;DHT22;6200;48.144;11.424;2023-05-07T14:57:05;23.70;80.00
12276;DHT22;6200;48.144;11.424;2023-05-07T14:59:30;23.60;80.20
12276;DHT22;6200;48.144;11.424;2023-05-07T15:01:57;23.40;80.50
12276;DHT22;6200;48.144;11.424;2023-05-07T15:04:24;23.30;82.30
12276;DHT22;6200;48.144;11.424;2023-05-07T15:06:49;23.20;82.10
12276;DHT22;6200;48.144;11.424;2023-05-07T15:09:15;23.10;80.50
12276;DHT22;6200;48.144;11.424;2023-05-07T15:11:40;23.10;80.00
12276;DHT22;6200;48.144;11.424;2023-05-07T15:14:06;23.00;80.30
12276;DHT22;6200;48.144;11.424;2023-05-07T15:16:31;23.00;79.80
12276;DHT22;6200;48.144;11.424;2023-05-07T15:18:58;22.90;81.70
12276;DHT22;6200;48.144;11.424;2023-05-07T15:21:23;22.80;82.80
12276;DHT22;6200;48.144;11.424;2023-05-07T15:23:49;22.80;83.30
12276;DHT22;6200;48.144;11.424;2023-05-07T15:26:14;22.70;83.60
12276;DHT22;6200;48.144;11.424;2023-05-07T15:28:40;22.50;82.50
12276;DHT22;6200;48.144;11.424;2023-05-07T15:31:06;22.50;83.40
12276;DHT22;6200;48.144;11.424;2023-05-07T15:33:32;22.40;84.00
12276;DHT22;6200;48.144;11.424;2023-05-07T15:35:58;22.40;84.60
12276;DHT22;6200;48.144;11.424;2023-05-07T15:38:25;22.30;85.40
12276;DHT22;6200;48.144;11.424;2023-05-07T15:40:51;22.20;85.20
12276;DHT22;6200;48.144;11.424;2023-05-07T15:43:16;22.20;84.90
12276;DHT22;6200;48.144;11.424;2023-05-07T15:45:43;22.20;85.80
12276;DHT22;6200;48.144;11.424;2023-05-07T15:48:09;22.20;84.10
12276;DHT22;6200;48.144;11.424;2023-05-07T15:50:36;22.10;84.70
12276;DHT22;6200;48.144;11.424;2023-05-07T15:53:02;22.10;83.00
12276;DHT22;6200;48.144;11.424;2023-05-07T15:55:28;22.00;83.90
12276;DHT22;6200;48.144;11.424;2023-05-07T15:57:54;21.90;82.90
12276;DHT22;6200;48.144;11.424;2023-05-07T16:00:20;21.90;85.30
12276;DHT22;6200;48.144;11.424;2023-05-07T16:02:46;21.90;84.40
12276;DHT22;6200;48.144;11.424;2023-05-07T16:05:11;21.80;84.70
12276;DHT22;6200;48.144;11.424;2023-05-07T16:07:39;21.80;84.40
12276;DHT22;6200;48.144;11.424;2023-05-07T16:10:06;21.80;85.00
12276;DHT22;6200;48.144;11.424;2023-05-07T16:12:32;21.80;84.60
12276;DHT22;6200;48.144;11.424;2023-05-07T16:14:58;21.80;83.50